Time;durP1;ratioP1;P1;durP2;ratioP2;P2;SDS_P1;SDS_P2;PMS_P1;PMS_P2;Temp;Humidity;BMP_temperature;BMP_pressure;BME280_temperature;BME280_humidity;BME280_pressure;Samples;Min_cycle;Max_cycle;Signal;HPM_P1;HPM_P2
2023/05/19 00:02:08;;;;;;;22.03;20.43;;;;;;;;;;5036629;28;20507;-82
2023/05/19 00:04:35;;;;;;;21.63;20.33;;;;;;;;;;5036223;28;20444;-82
2023/05/19 00:07:04;;;;;;;21.17;20.07;;;;;;;;;;5035272;28;20426;-82
2023/05/19 00:09:31;;;;;;;21.90;20.60;;;;;;;;;;5035585;28;20609;-82
2023/05/19 00:11:59;;;;;;;21.17;19.93;;;;;;;;;;5035898;28;20860;-82
2023/05/19 00:14:27;;;;;;;21.40;20.00;;;;;;;;;;5041867;28;20448;-82
2023/05/19 00:16:56;;;;;;;22.23;20.83;;;;;;;;;;5045167;28;20511;-82
2023/05/19 00:19:24;;;;;;;21.90;20.70;;;;;;;;;;5049499;28;20471;-83
2023/05/19 00:21:51;;;;;;;21.97;20.37;;;;;;;;;;5051194;28;20483;-82
2023/05/19 00:24:18;;;;;;;22.17;20.97;;;;;;;;;;5054679;28;20408;-82
2023/05/19 00:26:45;;;;;;;23.10;21.60;;;;;;;;;;5046496;28;20534;-82
2023/05/19 00:29:17;;;;;;;22.17;20.63;;;;;;;;;;5039548;28;20988;-82
2023/05/19 00:31:45;;;;;;;21.73;20.27;;;;;;;;;;5039838;28;20864;-82
2023/05/19 00:34:13;;;;;;;21.33;19.93;;;;;;;;;;5040348;28;20493;-82
2023/05/19 00:36:40;;;;;;;21.40;19.97;;;;;;;;;;5039239;28;20467;-82
2023/05/19 00:39:07;;;;;;;22.23;20.57;;;;;;;;;;5039808;28;20559;-82
2023/05/19 00:41:34;;;;;;;22.37;20.70;;;;;;;;;;5037957;28;21006;-82
2023/05/19 00:44:01;;;;;;;22.20;20.90;;;;;;;;;;5039389;28;20394;-82
2023/05/19 00:46:29;;;;;;;21.90;20.60;;;;;;;;;;5038325;28;20933;-81
2023/05/19 00:48:56;;;;;;;24.53;22.63;;;;;;;;;;5038174;28;20582;-81
2023/05/19 00:51:24;;;;;;;21.97;20.67;;;;;;;;;;5037655;28;20764;-81
2023/05/19 00:53:51;;;;;;;22.20;20.90;;;;;;;;;;5037819;28;20467;-82
2023/05/19 00:56:18;;;;;;;22.43;20.97;;;;;;;;;;5037364;28;20478;-82
2023/05/19 00:58:45;;;;;;;22.77;21.37;;;;;;;;;;5037897;28;20430;-82
2023/05/19 01:01:13;;;;;;;22.73;21.33;;;;;;;;;;5037297;28;20485;-82
2023/05/19 01:03:41;;;;;;;21.47;20.17;;;;;;;;;;5036887;28;20449;-82
2023/05/19 01:06:08;;;;;;;21.03;19.93;;;;;;;;;;5036675;28;20419;-82
2023/05/19 01:08:37;;;;;;;22.00;20.60;;;;;;;;;;5037190;28;20801;-81
2023/05/19 01:11:05;;;;;;;21.67;20.17;;;;;;;;;;5036085;28;20458;-82
2023/05/19 01:13:32;;;;;;;21.80;20.60;;;;;;;;;;5036501;28;20464;-82
2023/05/19 01:16:02;;;;;;;21.93;20.63;;;;;;;;;;5036496;28;20430;-82
2023/05/19 01:18:32;;;;;;;22.20;20.80;;;;;;;;;;5036831;28;20430;-82
2023/05/19 01:21:10;;;;;;;22.60;20.70;;;;;;;;;;5036204;28;20450;-82
2023/05/19 01:23:43;;;;;;;22.40;20.80;;;;;;;;;;5035994;28;20492;-81
2023/05/19 01:26:17;;;;;;;22.40;21.00;;;;;;;;;;5036222;28;20898;-79
2023/05/19 01:29:05;;;;;;;22.03;20.73;;;;;;;;;;5036157;28;20453;-79
2023/05/19 01:31:33;;;;;;;22.17;20.57;;;;;;;;;;5032786;28;20451;-82
2023/05/19 01:34:01;;;;;;;22.50;20.87;;;;;;;;;;5036131;28;20468;-82
2023/05/19 01:36:28;;;;;;;23.47;21.50;;;;;;;;;;5035055;28;20430;-82
2023/05/19 01:38:57;;;;;;;22.50;21.00;;;;;;;;;;5035724;28;20533;-82
2023/05/19 01:41:25;;;;;;;22.07;20.63;;;;;;;;;;5036095;28;20456;-82
2023/05/19 01:43:53;;;;;;;22.57;20.73;;;;;;;;;;5035747;28;20471;-81
2023/05/19 01:46:20;;;;;;;21.77;20.40;;;;;;;;;;5034926;28;20458;-82
2023/05/19 01:48:48;;;;;;;21.90;20.40;;;;;;;;;;5035229;28;20430;-82
2023/05/19 01:51:16;;;;;;;21.17;19.97;;;;;;;;;;5035140;28;20871;-82
2023/05/19 01:53:43;;;;;;;21.13;20.03;;;;;;;;;;5037423;28;20455;-81
2023/05/19 01:56:10;;;;;;;22.40;21.10;;;;;;;;;;5035930;28;21097;-81
2023/05/19 01:58:40;;;;;;;21.10;19.90;;;;;;;;;;5037588;28;20430;-81
2023/05/19 02:01:12;;;;;;;21.93;20.43;;;;;;;;;;5042093;28;20471;-82
2023/05/19 02:03:45;;;;;;;22.40;21.10;;;;;;;;;;5057532;28;20444;-82
2023/05/19 02:06:20;;;;;;;21.67;20.27;;;;;;;;;;5057015;28;20410;-82
2023/05/19 02:08:52;;;;;;;21.00;19.80;;;;;;;;;;5051008;28;20495;-81
2023/05/19 02:11:23;;;;;;;22.47;21.03;;;;;;;;;;5036793;28;20467;-81
2023/05/19 02:13:50;;;;;;;22.07;20.70;;;;;;;;;;5036572;28;20437;-81
2023/05/19 02:16:18;;;;;;;22.60;21.20;;;;;;;;;;5035174;28;20430;-82
2023/05/19 02:18:46;;;;;;;21.57;20.30;;;;;;;;;;5036639;28;20447;-81
2023/05/19 02:21:13;;;;;;;21.90;20.40;;;;;;;;;;5036506;28;20907;-82
2023/05/19 02:23:42;;;;;;;22.33;21.10;;;;;;;;;;5036102;28;20460;-80
2023/05/19 02:26:09;;;;;;;23.23;21.83;;;;;;;;;;5035958;28;20480;-82
2023/05/19 02:28:36;;;;;;;22.53;21.10;;;;;;;;;;5035065;28;20467;-82
2023/05/19 02:31:05;;;;;;;22.03;20.33;;;;;;;;;;5035131;28;20481;-81
2023/05/19 02:33:32;;;;;;;21.20;20.00;;;;;;;;;;5034801;28;20542;-80
2023/05/19 02:35:59;;;;;;;21.10;19.80;;;;;;;;;;5033484;28;20484;-81
2023/05/19 02:38:26;;;;;;;21.57;19.73;;;;;;;;;;5033392;28;20491;-80
2023/05/19 02:40:54;;;;;;;22.30;20.80;;;;;;;;;;5034174;28;20473;-81
2023/05/19 02:43:21;;;;;;;20.87;19.67;;;;;;;;;;5034273;28;20498;-82
2023/05/19 02:45:48;;;;;;;21.63;20.20;;;;;;;;;;5033188;28;20436;-81
2023/05/19 02:48:15;;;;;;;22.13;20.40;;;;;;;;;;5033366;28;20536;-80
2023/05/19 02:50:42;;;;;;;21.00;19.40;;;;;;;;;;5033640;28;21024;-81
2023/05/19 02:53:09;;;;;;;22.00;20.70;;;;;;;;;;5035763;28;20430;-81
2023/05/19 02:55:36;;;;;;;21.77;20.37;;;;;;;;;;5033573;28;20426;-82
2023/05/19 02:58:04;;;;;;;21.87;20.27;;;;;;;;;;5033644;28;20787;-81
2023/05/19 03:00:31;;;;;;;21.77;20.13;;;;;;;;;;5033686;28;20496;-81
2023/05/19 03:03:01;;;;;;;22.97;21.47;;;;;;;;;;5034008;28;20426;-81
2023/05/19 03:05:28;;;;;;;21.23;19.83;;;;;;;;;;5033630;28;20491;-81
2023/05/19 03:07:55;;;;;;;22.17;20.97;;;;;;;;;;5033597;28;20795;-82
2023/05/19 03:10:22;;;;;;;22.40;21.03;;;;;;;;;;5032904;28;20854;-81
2023/05/19 03:12:49;;;;;;;22.37;20.60;;;;;;;;;;5033961;28;20484;-81
2023/05/19 03:15:19;;;;;;;23.10;21.40;;;;;;;;;;5033577;28;20444;-80
2023/05/19 03:17:46;;;;;;;25.20;23.30;;;;;;;;;;5033836;28;20426;-81
2023/05/19 03:20:14;;;;;;;22.53;20.90;;;;;;;;;;5032675;28;20491;-81
2023/05/19 03:22:42;;;;;;;22.67;21.20;;;;;;;;;;5035368;28;20446;-81
2023/05/19 03:25:09;;;;;;;21.17;19.87;;;;;;;;;;5033867;28;20440;-81
2023/05/19 03:27:36;;;;;;;21.77;20.57;;;;;;;;;;5033209;28;20430;-81
2023/05/19 03:30:03;;;;;;;21.97;20.60;;;;;;;;;;5032388;28;20614;-82
2023/05/19 03:32:32;;;;;;;21.20;19.93;;;;;;;;;;5033206;28;20550;-78
2023/05/19 03:34:59;;;;;;;21.87;20.33;;;;;;;;;;5033283;28;20516;-79
2023/05/19 03:37:26;;;;;;;22.53;20.87;;;;;;;;;;5035154;28;20451;-79
2023/05/19 03:39:53;;;;;;;21.93;20.70;;;;;;;;;;5032567;28;20537;-79
2023/05/19 03:42:20;;;;;;;22.30;20.90;;;;;;;;;;5033310;28;20426;-79
2023/05/19 03:44:47;;;;;;;22.10;20.70;;;;;;;;;;5033598;28;20452;-78
2023/05/19 03:47:14;;;;;;;21.50;19.97;;;;;;;;;;5032757;28;20422;-79
2023/05/19 03:49:43;;;;;;;23.17;21.47;;;;;;;;;;5032645;28;21050;-78
2023/05/19 03:52:11;;;;;;;22.43;20.83;;;;;;;;;;5033065;28;20886;-79
2023/05/19 03:54:38;;;;;;;23.07;21.67;;;;;;;;;;5034405;28;20914;-80
2023/05/19 03:57:06;;;;;;;22.70;21.30;;;;;;;;;;5041162;28;21002;-80
2023/05/19 03:59:34;;;;;;;22.40;20.80;;;;;;;;;;5045697;28;20459;-80
2023/05/19 04:02:01;;;;;;;22.60;20.67;;;;;;;;;;5045682;28;20442;-80
2023/05/19 04:04:28;;;;;;;22.20;20.80;;;;;;;;;;5045541;28;20468;-79
2023/05/19 04:06:56;;;;;;;21.63;20.30;;;;;;;;;;5037221;28;20508;-79
2023/05/19 04:09:23;;;;;;;23.27;21.37;;;;;;;;;;5037481;28;20449;-79
2023/05/19 04:11:50;;;;;;;22.67;21.40;;;;;;;;;;5036543;28;20998;-79
2023/05/19 04:14:18;;;;;;;21.80;20.60;;;;;;;;;;5037089;28;20457;-79
2023/05/19 04:16:45;;;;;;;22.27;20.77;;;;;;;;;;5036987;28;20521;-79
2023/05/19 04:19:12;;;;;;;28.20;21.33;;;;;;;;;;5042499;28;20508;-79
2023/05/19 04:21:39;;;;;;;22.60;20.80;;;;;;;;;;5036730;28;20475;-78
2023/05/19 04:24:08;;;;;;;22.00;20.53;;;;;;;;;;5036965;28;20541;-79
2023/05/19 04:26:37;;;;;;;21.47;20.23;;;;;;;;;;5036518;28;21195;-78
2023/05/19 04:29:04;;;;;;;23.63;22.07;;;;;;;;;;5037414;28;20510;-78
2023/05/19 04:31:33;;;;;;;22.40;20.70;;;;;;;;;;5037296;28;20477;-79
2023/05/19 04:34:00;;;;;;;22.33;20.90;;;;;;;;;;5036677;28;20469;-79
2023/05/19 04:36:27;;;;;;;22.40;20.80;;;;;;;;;;5039513;28;20463;-79
2023/05/19 04:39:01;;;;;;;22.57;21.03;;;;;;;;;;5041346;28;20445;-79
2023/05/19 04:41:29;;;;;;;22.23;20.63;;;;;;;;;;5036586;28;20946;-79
2023/05/19 04:43:57;;;;;;;22.30;20.70;;;;;;;;;;5037124;28;20459;-79
2023/05/19 04:46:24;;;;;;;21.87;20.47;;;;;;;;;;5035858;28;20485;-78
2023/05/19 04:48:52;;;;;;;21.30;20.10;;;;;;;;;;5043320;28;20516;-80
2023/05/19 04:51:19;;;;;;;21.00;19.80;;;;;;;;;;5042035;28;20462;-79
2023/05/19 04:53:46;;;;;;;22.07;20.67;;;;;;;;;;5036726;28;20453;-78
2023/05/19 04:56:14;;;;;;;21.80;20.30;;;;;;;;;;5035753;28;20525;-79
2023/05/19 04:58:43;;;;;;;22.03;20.83;;;;;;;;;;5036632;28;20437;-79
2023/05/19 05:01:12;;;;;;;21.67;20.20;;;;;;;;;;5037018;28;20447;-79
2023/05/19 05:03:39;;;;;;;21.27;19.73;;;;;;;;;;5037236;28;20444;-79
2023/05/19 05:06:06;;;;;;;21.33;19.70;;;;;;;;;;5035870;28;20467;-78
2023/05/19 05:08:33;;;;;;;22.00;20.70;;;;;;;;;;5037317;28;20850;-79
2023/05/19 05:11:01;;;;;;;20.90;19.37;;;;;;;;;;5035896;28;20490;-79
2023/05/19 05:13:28;;;;;;;20.60;19.30;;;;;;;;;;5037907;28;20440;-79
2023/05/19 05:15:57;;;;;;;21.40;19.80;;;;;;;;;;5035826;28;20478;-79
2023/05/19 05:18:25;;;;;;;21.67;20.20;;;;;;;;;;5036478;28;20435;-79
2023/05/19 05:20:52;;;;;;;21.83;20.10;;;;;;;;;;5036141;28;20472;-79
2023/05/19 05:23:19;;;;;;;20.97;19.70;;;;;;;;;;5036396;28;20505;-78
2023/05/19 05:25:47;;;;;;;20.63;19.40;;;;;;;;;;5035336;28;20969;-78
2023/05/19 05:28:14;;;;;;;20.60;19.30;;;;;;;;;;5036170;28;20471;-78
2023/05/19 05:30:42;;;;;;;21.10;19.50;;;;;;;;;;5035807;28;20498;-77
2023/05/19 05:33:11;;;;;;;22.67;21.37;;;;;;;;;;5035078;28;20448;-76
2023/05/19 05:35:38;;;;;;;21.90;20.40;;;;;;;;;;5034705;28;20428;-77
2023/05/19 05:38:05;;;;;;;20.67;19.10;;;;;;;;;;5034634;28;20471;-76
2023/05/19 05:40:32;;;;;;;21.87;20.60;;;;;;;;;;5034556;28;20494;-77
2023/05/19 05:42:59;;;;;;;21.13;19.80;;;;;;;;;;5035609;28;20470;-79
2023/05/19 05:45:26;;;;;;;20.97;19.67;;;;;;;;;;5036392;28;20448;-79
2023/05/19 05:47:53;;;;;;;22.43;20.70;;;;;;;;;;5035196;28;20971;-79
2023/05/19 05:50:23;;;;;;;23.27;21.70;;;;;;;;;;5035411;28;20483;-79
2023/05/19 05:52:51;;;;;;;22.63;21.30;;;;;;;;;;5036290;28;20452;-81
2023/05/19 05:55:18;;;;;;;21.63;20.20;;;;;;;;;;5036314;28;20462;-79
2023/05/19 05:57:47;;;;;;;23.70;22.30;;;;;;;;;;5034920;28;20543;-78
2023/05/19 06:00:15;;;;;;;22.07;20.57;;;;;;;;;;5035403;28;20492;-79
2023/05/19 06:02:43;;;;;;;21.90;20.40;;;;;;;;;;5035856;28;20494;-79
2023/05/19 06:05:11;;;;;;;22.67;21.10;;;;;;;;;;5035813;28;20462;-79
2023/05/19 06:07:39;;;;;;;22.67;21.17;;;;;;;;;;5035710;28;20462;-79
2023/05/19 06:10:07;;;;;;;22.10;20.83;;;;;;;;;;5039444;28;20492;-80
2023/05/19 06:12:34;;;;;;;24.47;22.10;;;;;;;;;;5043770;28;20486;-80
2023/05/19 06:15:02;;;;;;;21.83;20.60;;;;;;;;;;5043401;28;20456;-80
2023/05/19 06:17:29;;;;;;;22.53;20.90;;;;;;;;;;5042546;28;20453;-80
2023/05/19 06:19:56;;;;;;;22.20;20.70;;;;;;;;;;5042138;28;20454;-79
2023/05/19 06:22:23;;;;;;;21.57;20.20;;;;;;;;;;5027134;28;21010;-80
2023/05/19 06:24:51;;;;;;;21.63;20.33;;;;;;;;;;5022621;28;20493;-80
2023/05/19 06:27:18;;;;;;;21.93;20.53;;;;;;;;;;5021022;28;20436;-79
2023/05/19 06:29:45;;;;;;;23.90;21.90;;;;;;;;;;5018890;28;20443;-79
2023/05/19 06:32:12;;;;;;;24.60;22.87;;;;;;;;;;5015696;28;20467;-79
2023/05/19 06:34:39;;;;;;;22.20;20.80;;;;;;;;;;5016199;28;20503;-79
2023/05/19 06:37:06;;;;;;;21.80;20.23;;;;;;;;;;5014789;28;20539;-80
2023/05/19 06:39:33;;;;;;;21.80;20.33;;;;;;;;;;5015752;28;20493;-79
2023/05/19 06:42:01;;;;;;;20.73;19.43;;;;;;;;;;5015299;28;20435;-80
2023/05/19 06:44:28;;;;;;;21.10;19.70;;;;;;;;;;5031638;28;20429;-79
2023/05/19 06:46:55;;;;;;;21.77;20.33;;;;;;;;;;5037134;28;20464;-79
2023/05/19 06:49:22;;;;;;;22.50;21.00;;;;;;;;;;5037573;28;20465;-79
2023/05/19 06:51:49;;;;;;;22.20;20.80;;;;;;;;;;5029829;28;20451;-80
2023/05/19 06:54:16;;;;;;;22.33;20.70;;;;;;;;;;5025232;28;20503;-80
2023/05/19 06:56:43;;;;;;;22.80;21.40;;;;;;;;;;5021674;28;20452;-79
2023/05/19 06:59:12;;;;;;;22.53;20.90;;;;;;;;;;5021007;28;20478;-80
2023/05/19 07:01:39;;;;;;;23.50;21.67;;;;;;;;;;5020994;28;20481;-79
2023/05/19 07:04:06;;;;;;;22.70;21.20;;;;;;;;;;5021230;28;20431;-79
2023/05/19 07:06:33;;;;;;;22.70;20.90;;;;;;;;;;5024718;28;20430;-79
2023/05/19 07:09:00;;;;;;;22.60;21.30;;;;;;;;;;5039513;28;20426;-79
2023/05/19 07:11:27;;;;;;;23.20;21.60;;;;;;;;;;5040457;28;20450;-80
2023/05/19 07:13:54;;;;;;;21.07;19.87;;;;;;;;;;5039883;28;20488;-79
2023/05/19 07:16:23;;;;;;;23.20;21.63;;;;;;;;;;5035892;28;20418;-79
2023/05/19 07:18:50;;;;;;;23.40;21.70;;;;;;;;;;5035990;28;20418;-79
2023/05/19 07:21:17;;;;;;;24.30;22.70;;;;;;;;;;5035221;28;20422;-80
2023/05/19 07:23:44;;;;;;;24.20;22.50;;;;;;;;;;5034507;28;20830;-79
2023/05/19 07:26:11;;;;;;;23.23;21.47;;;;;;;;;;5033087;28;20969;-78
2023/05/19 07:28:38;;;;;;;23.00;21.50;;;;;;;;;;5034717;28;20785;-79
2023/05/19 07:31:05;;;;;;;24.00;22.50;;;;;;;;;;5035348;28;20492;-79
2023/05/19 07:33:34;;;;;;;22.87;21.37;;;;;;;;;;5034418;28;20527;-79
2023/05/19 07:36:01;;;;;;;22.57;21.17;;;;;;;;;;5034556;28;20430;-79
2023/05/19 07:38:28;;;;;;;22.57;21.17;;;;;;;;;;5034929;28;20467;-79
2023/05/19 07:40:55;;;;;;;21.80;20.57;;;;;;;;;;5034019;28;20471;-80
2023/05/19 07:43:22;;;;;;;23.37;21.67;;;;;;;;;;5033569;28;20437;-80
2023/05/19 07:45:49;;;;;;;23.60;22.13;;;;;;;;;;5033213;28;20513;-80
2023/05/19 07:48:17;;;;;;;22.73;21.10;;;;;;;;;;5034144;28;20451;-81
2023/05/19 07:50:46;;;;;;;23.17;21.30;;;;;;;;;;5032654;28;20545;-81
2023/05/19 07:53:13;;;;;;;23.23;21.57;;;;;;;;;;5033353;28;20979;-84
2023/05/19 07:55:40;;;;;;;23.30;21.70;;;;;;;;;;5033141;28;20520;-79
2023/05/19 07:58:07;;;;;;;22.90;21.03;;;;;;;;;;5034481;28;20422;-79
2023/05/19 08:00:34;;;;;;;22.53;20.90;;;;;;;;;;5033137;28;20458;-78
2023/05/19 08:03:01;;;;;;;22.53;21.20;;;;;;;;;;5033463;28;20479;-81
2023/05/19 08:05:29;;;;;;;22.20;20.80;;;;;;;;;;5033659;28;20472;-78
2023/05/19 08:07:58;;;;;;;22.40;20.90;;;;;;;;;;5034535;28;20989;-79
2023/05/19 08:10:25;;;;;;;22.40;21.10;;;;;;;;;;5033493;28;20484;-80
2023/05/19 08:12:52;;;;;;;23.37;21.60;;;;;;;;;;5034172;28;20488;-81
2023/05/19 08:15:19;;;;;;;22.37;20.73;;;;;;;;;;5034634;28;20751;-80
2023/05/19 08:17:46;;;;;;;23.77;21.90;;;;;;;;;;5036145;28;20470;-80
2023/05/19 08:20:13;;;;;;;21.60;20.40;;;;;;;;;;5042669;28;20525;-83
2023/05/19 08:22:40;;;;;;;22.27;20.93;;;;;;;;;;5041864;28;20434;-80
2023/05/19 08:25:10;;;;;;;23.10;21.60;;;;;;;;;;5044456;28;20894;-80
2023/05/19 08:27:37;;;;;;;23.30;21.87;;;;;;;;;;5036129;28;20456;-77
2023/05/19 08:30:04;;;;;;;22.60;21.20;;;;;;;;;;5034433;28;20992;-77
2023/05/19 08:32:31;;;;;;;22.77;21.47;;;;;;;;;;5034053;28;20462;-77
2023/05/19 08:34:58;;;;;;;22.90;21.30;;;;;;;;;;5034520;28;20448;-79
2023/05/19 08:37:25;;;;;;;23.67;22.07;;;;;;;;;;5033740;28;20901;-77
2023/05/19 08:39:52;;;;;;;23.27;21.67;;;;;;;;;;5034726;28;20467;-78
2023/05/19 08:42:21;;;;;;;23.67;21.90;;;;;;;;;;5037895;28;20419;-77
2023/05/19 08:44:48;;;;;;;23.23;21.70;;;;;;;;;;5035402;28;20985;-77
2023/05/19 08:47:15;;;;;;;22.23;20.83;;;;;;;;;;5037184;28;20484;-78
2023/05/19 08:49:44;;;;;;;23.00;21.60;;;;;;;;;;5037567;28;20500;-77
2023/05/19 08:52:16;;;;;;;22.87;21.40;;;;;;;;;;5037918;28;20461;-78
2023/05/19 08:54:47;;;;;;;22.60;20.90;;;;;;;;;;5037176;28;20437;-77
2023/05/19 08:57:14;;;;;;;22.30;21.07;;;;;;;;;;5037125;28;20407;-77
2023/05/19 08:59:43;;;;;;;22.67;21.13;;;;;;;;;;5037964;28;20442;-78
2023/05/19 09:02:11;;;;;;;23.13;21.67;;;;;;;;;;5038246;28;20456;-78
2023/05/19 09:04:39;;;;;;;23.17;21.70;;;;;;;;;;5037592;28;20442;-77
2023/05/19 09:07:06;;;;;;;23.00;21.47;;;;;;;;;;5037481;28;20451;-77
2023/05/19 09:09:33;;;;;;;22.50;21.20;;;;;;;;;;5040064;28;20438;-80
2023/05/19 09:12:00;;;;;;;23.10;21.50;;;;;;;;;;5046135;28;20467;-80
2023/05/19 09:14:28;;;;;;;22.17;20.87;;;;;;;;;;5045603;28;20434;-80
2023/05/19 09:16:56;;;;;;;22.97;21.57;;;;;;;;;;5045804;28;20426;-80
2023/05/19 09:19:23;;;;;;;22.77;21.30;;;;;;;;;;5045026;28;20859;-80
2023/05/19 09:21:59;;;;;;;23.23;21.53;;;;;;;;;;5045870;28;20422;-80
2023/05/19 09:24:26;;;;;;;23.70;21.93;;;;;;;;;;5044927;28;20532;-79
2023/05/19 09:26:55;;;;;;;23.00;21.37;;;;;;;;;;5044953;28;20471;-80
2023/05/19 09:29:22;;;;;;;24.37;22.43;;;;;;;;;;5045338;28;20442;-80
2023/05/19 09:31:50;;;;;;;24.17;22.60;;;;;;;;;;5044779;28;20479;-80
2023/05/19 09:34:18;;;;;;;25.00;23.40;;;;;;;;;;5045188;28;20426;-80
2023/05/19 09:36:48;;;;;;;22.60;21.17;;;;;;;;;;5043142;28;20474;-77
2023/05/19 09:39:15;;;;;;;22.43;20.93;;;;;;;;;;5037250;28;20523;-78
2023/05/19 09:41:42;;;;;;;23.60;22.10;;;;;;;;;;5037940;28;20437;-78
2023/05/19 09:44:13;;;;;;;25.53;24.00;;;;;;;;;;5036537;28;20486;-78
2023/05/19 09:46:48;;;;;;;23.20;21.70;;;;;;;;;;5034681;28;20452;-77
2023/05/19 09:49:19;;;;;;;22.40;20.80;;;;;;;;;;5034803;28;20471;-83
2023/05/19 09:51:49;;;;;;;22.67;21.23;;;;;;;;;;5037814;28;20523;-85
2023/05/19 09:54:16;;;;;;;23.77;22.17;;;;;;;;;;5039208;28;20476;-84
2023/05/19 09:56:43;;;;;;;22.90;21.50;;;;;;;;;;5034437;28;20499;-78
2023/05/19 09:59:10;;;;;;;23.90;22.50;;;;;;;;;;5032262;28;20967;-77
2023/05/19 10:01:39;;;;;;;23.97;22.37;;;;;;;;;;5033912;28;20407;-77
2023/05/19 10:04:06;;;;;;;23.60;22.20;;;;;;;;;;5033540;28;20477;-78
2023/05/19 10:06:34;;;;;;;25.17;23.67;;;;;;;;;;5033143;28;20836;-76
2023/05/19 10:09:03;;;;;;;23.90;22.40;;;;;;;;;;5033397;28;20473;-77
2023/05/19 10:11:31;;;;;;;23.60;22.07;;;;;;;;;;5033841;28;20456;-77
2023/05/19 10:13:58;;;;;;;24.27;22.77;;;;;;;;;;5033407;28;20462;-76
2023/05/19 10:16:27;;;;;;;22.53;21.13;;;;;;;;;;5033991;28;20457;-80
2023/05/19 10:18:55;;;;;;;24.43;22.83;;;;;;;;;;5034909;28;20455;-85
2023/05/19 10:21:22;;;;;;;23.30;21.70;;;;;;;;;;5027011;28;20439;-80
2023/05/19 10:23:49;;;;;;;23.87;22.20;;;;;;;;;;5016975;28;20501;-79
2023/05/19 10:26:18;;;;;;;24.73;23.13;;;;;;;;;;5015294;28;20493;-79
2023/05/19 10:28:46;;;;;;;23.50;22.10;;;;;;;;;;5014728;28;21022;-83
2023/05/19 10:31:18;;;;;;;25.43;23.43;;;;;;;;;;5016087;28;20828;-78
2023/05/19 10:34:09;;;;;;;22.67;21.30;;;;;;;;;;5014180;28;20572;-79
2023/05/19 10:36:45;;;;;;;22.33;20.80;;;;;;;;;;5016097;28;20420;-78
2023/05/19 10:39:17;;;;;;;23.10;21.70;;;;;;;;;;5016632;28;21175;-78
2023/05/19 10:41:50;;;;;;;21.70;20.40;;;;;;;;;;5017192;28;20407;-78
2023/05/19 10:44:21;;;;;;;22.70;21.40;;;;;;;;;;5016865;28;20408;-78
2023/05/19 10:46:47;;;;;;;23.23;21.83;;;;;;;;;;5016375;28;20417;-78
2023/05/19 10:49:21;;;;;;;23.20;21.80;;;;;;;;;;5016305;28;20452;-78
2023/05/19 10:51:48;;;;;;;22.90;21.40;;;;;;;;;;5016427;28;20451;-78
2023/05/19 10:54:16;;;;;;;23.27;21.87;;;;;;;;;;5017737;28;20514;-82
2023/05/19 10:56:46;;;;;;;22.73;21.43;;;;;;;;;;5016434;28;21088;-78
2023/05/19 10:59:27;;;;;;;22.27;20.87;;;;;;;;;;5018202;28;20452;-77
2023/05/19 11:01:56;;;;;;;24.13;22.63;;;;;;;;;;5031952;28;20423;-77
2023/05/19 11:04:39;;;;;;;23.43;21.83;;;;;;;;;;5032918;28;20459;-78
2023/05/19 11:07:06;;;;;;;23.80;22.33;;;;;;;;;;5031518;28;20471;-77
2023/05/19 11:09:33;;;;;;;24.37;22.87;;;;;;;;;;5031263;28;20553;-78
2023/05/19 11:12:03;;;;;;;23.00;21.60;;;;;;;;;;5030836;28;20447;-77
2023/05/19 11:14:31;;;;;;;24.03;22.17;;;;;;;;;;5030342;28;20921;-77
2023/05/19 11:16:59;;;;;;;24.50;22.90;;;;;;;;;;5028951;28;20507;-77
2023/05/19 11:19:27;;;;;;;23.10;21.60;;;;;;;;;;5030341;28;20506;-78
2023/05/19 11:21:55;;;;;;;23.17;21.67;;;;;;;;;;5030607;28;20496;-77
2023/05/19 11:24:35;;;;;;;24.20;22.70;;;;;;;;;;5030243;28;20862;-77
2023/05/19 11:27:17;;;;;;;25.73;24.23;;;;;;;;;;5029370;28;20828;-78
2023/05/19 11:29:44;;;;;;;24.30;22.80;;;;;;;;;;5029979;28;20454;-77
2023/05/19 11:32:13;;;;;;;23.97;22.47;;;;;;;;;;5030706;28;20445;-77
2023/05/19 11:34:40;;;;;;;23.43;21.97;;;;;;;;;;5031511;28;20498;-77
2023/05/19 11:37:07;;;;;;;22.40;21.20;;;;;;;;;;5032357;28;20606;-77
2023/05/19 11:39:35;;;;;;;25.00;23.40;;;;;;;;;;5033906;28;20478;-78
2023/05/19 11:42:02;;;;;;;24.70;23.10;;;;;;;;;;5033145;28;20477;-77
2023/05/19 11:44:29;;;;;;;23.27;21.97;;;;;;;;;;5030431;28;20470;-77
2023/05/19 11:46:56;;;;;;;21.60;20.30;;;;;;;;;;5028741;28;20995;-77
2023/05/19 11:49:24;;;;;;;22.47;21.10;;;;;;;;;;5030213;28;20469;-77
2023/05/19 11:51:51;;;;;;;23.27;21.67;;;;;;;;;;5030760;28;20531;-77
2023/05/19 11:54:18;;;;;;;22.17;20.77;;;;;;;;;;5030296;28;20466;-77
2023/05/19 11:56:45;;;;;;;22.90;21.60;;;;;;;;;;5029541;28;20475;-78
2023/05/19 11:59:12;;;;;;;21.60;20.23;;;;;;;;;;5030409;28;20469;-77
2023/05/19 12:01:39;;;;;;;22.40;21.00;;;;;;;;;;5030014;28;20477;-77
2023/05/19 12:04:08;;;;;;;23.77;22.10;;;;;;;;;;5030513;28;20448;-77
2023/05/19 12:06:37;;;;;;;23.03;21.63;;;;;;;;;;5029597;28;20428;-77
2023/05/19 12:09:05;;;;;;;23.17;21.77;;;;;;;;;;5029462;28;21039;-78
2023/05/19 12:11:32;;;;;;;24.20;22.50;;;;;;;;;;5031054;28;20465;-78
2023/05/19 12:14:00;;;;;;;24.03;22.13;;;;;;;;;;5030333;28;20496;-77
2023/05/19 12:16:33;;;;;;;22.80;21.40;;;;;;;;;;5033704;28;20467;-79
2023/05/19 12:19:00;;;;;;;23.13;21.63;;;;;;;;;;5032615;28;20502;-77
2023/05/19 12:21:28;;;;;;;22.40;21.00;;;;;;;;;;5036879;28;20931;-82
2023/05/19 12:23:56;;;;;;;23.53;21.90;;;;;;;;;;5038283;28;20477;-79
2023/05/19 12:26:23;;;;;;;23.10;21.60;;;;;;;;;;5036250;28;20424;-78
2023/05/19 12:28:51;;;;;;;24.10;22.60;;;;;;;;;;5036909;28;20785;-78
2023/05/19 12:31:18;;;;;;;22.73;21.30;;;;;;;;;;5037149;28;20923;-78
2023/05/19 12:33:46;;;;;;;22.43;21.13;;;;;;;;;;5036310;28;20512;-78
2023/05/19 12:36:13;;;;;;;22.47;21.07;;;;;;;;;;5035394;28;20422;-78
2023/05/19 12:38:41;;;;;;;24.20;22.70;;;;;;;;;;5035427;28;20456;-78
2023/05/19 12:41:11;;;;;;;23.83;22.37;;;;;;;;;;5036088;28;20480;-79
2023/05/19 12:43:38;;;;;;;24.43;23.00;;;;;;;;;;5039424;28;20541;-79
2023/05/19 12:46:12;;;;;;;23.30;21.90;;;;;;;;;;5038785;28;20454;-78
2023/05/19 12:48:41;;;;;;;23.70;22.10;;;;;;;;;;5038760;28;20479;-79
2023/05/19 12:51:08;;;;;;;24.17;22.57;;;;;;;;;;5036628;28;20450;-78
2023/05/19 12:53:35;;;;;;;25.03;23.33;;;;;;;;;;5036743;28;21333;-78
2023/05/19 12:56:10;;;;;;;25.07;23.00;;;;;;;;;;5036341;28;20458;-79
2023/05/19 12:58:38;;;;;;;24.77;23.10;;;;;;;;;;5040855;28;20903;-78
2023/05/19 13:01:06;;;;;;;23.30;21.70;;;;;;;;;;5036647;28;20442;-78
2023/05/19 13:03:34;;;;;;;22.20;20.83;;;;;;;;;;5036729;28;20531;-78
2023/05/19 13:06:01;;;;;;;22.63;21.23;;;;;;;;;;5036046;28;20481;-79
2023/05/19 13:08:28;;;;;;;24.07;21.90;;;;;;;;;;5037642;28;20424;-78
2023/05/19 13:10:55;;;;;;;24.03;22.43;;;;;;;;;;5037143;28;20510;-78
2023/05/19 13:13:22;;;;;;;23.33;21.90;;;;;;;;;;5037144;28;20453;-78
2023/05/19 13:15:51;;;;;;;23.83;22.23;;;;;;;;;;5036677;28;20429;-78
2023/05/19 13:18:18;;;;;;;22.60;21.20;;;;;;;;;;5037606;28;20604;-78
2023/05/19 13:20:45;;;;;;;23.17;21.67;;;;;;;;;;5038899;28;20564;-78
2023/05/19 13:23:13;;;;;;;23.00;21.43;;;;;;;;;;5037310;28;20421;-78
2023/05/19 13:25:40;;;;;;;22.90;21.47;;;;;;;;;;5035624;28;20438;-78
2023/05/19 13:28:08;;;;;;;22.90;21.50;;;;;;;;;;5036388;28;20523;-78
2023/05/19 13:30:36;;;;;;;22.30;21.00;;;;;;;;;;5035323;28;20497;-79
2023/05/19 13:33:05;;;;;;;22.87;21.57;;;;;;;;;;5035773;28;20495;-78
2023/05/19 13:35:35;;;;;;;23.10;21.60;;;;;;;;;;5035772;28;20460;-78
2023/05/19 13:38:03;;;;;;;22.43;21.13;;;;;;;;;;5037266;28;20449;-78
2023/05/19 13:40:31;;;;;;;23.53;22.03;;;;;;;;;;5041808;28;20477;-78
2023/05/19 13:42:58;;;;;;;23.23;21.77;;;;;;;;;;5037892;28;20434;-78
2023/05/19 13:45:25;;;;;;;23.33;21.83;;;;;;;;;;5041556;28;20482;-78
2023/05/19 13:47:52;;;;;;;22.83;21.40;;;;;;;;;;5039443;28;20539;-78
2023/05/19 13:50:21;;;;;;;23.03;21.63;;;;;;;;;;5038572;28;20468;-78
2023/05/19 13:52:48;;;;;;;22.73;21.23;;;;;;;;;;5039469;28;20454;-78
2023/05/19 13:55:15;;;;;;;22.90;21.40;;;;;;;;;;5039022;28;20826;-78
2023/05/19 13:57:42;;;;;;;22.97;21.47;;;;;;;;;;5038313;28;20433;-83
2023/05/19 14:00:10;;;;;;;22.70;21.07;;;;;;;;;;5042494;28;20945;-78
2023/05/19 14:02:38;;;;;;;23.60;22.23;;;;;;;;;;5043706;28;20421;-79
2023/05/19 14:05:05;;;;;;;22.03;20.63;;;;;;;;;;5043364;28;20540;-78
2023/05/19 14:07:34;;;;;;;22.80;21.40;;;;;;;;;;5042760;28;20423;-78
2023/05/19 14:10:01;;;;;;;22.30;20.90;;;;;;;;;;5042511;28;20433;-78
2023/05/19 14:12:28;;;;;;;22.03;20.63;;;;;;;;;;5039970;28;20894;-79
2023/05/19 14:14:55;;;;;;;23.47;21.50;;;;;;;;;;5042059;28;20490;-78
2023/05/19 14:17:22;;;;;;;21.97;20.47;;;;;;;;;;5045704;28;20433;-78
2023/05/19 14:19:49;;;;;;;22.17;20.90;;;;;;;;;;5038771;28;20465;-78
2023/05/19 14:22:17;;;;;;;21.67;20.27;;;;;;;;;;5041471;28;20418;-79